GLD879 SWJW-SSCI
Flight info
| Callsign | GLD879 |
|---|---|
| Flight time | 1h 0m |
| Altitude | 4500 |
| Route | DCT 1757S05225W 1806S05309W 1818S05339W DCT |
| Aircraft | BE35/M-SDFGIRY/S |
Departure
| Time | 2026-05-08 21:58 |
|---|---|
| Airport | Jataí Airport (SWJW) |
Arrival
| Time | 2026-05-08 22:58 |
|---|---|
| Airport | Coxim Airport (SSCI) |
| Time | Latitude | Longitude | Altitude | Speed | Heading |
|---|---|---|---|---|---|
| 2026-05-08 21:46 | -17.83065 | -51.77416 | 2530 ft | 0 kts | 187° |
| 2026-05-08 21:54 | -17.83074 | -51.77381 | 2529 ft | 12 kts | 91° |
| 2026-05-08 21:54 | -17.83094 | -51.77282 | 2530 ft | 15 kts | 112° |
| 2026-05-08 21:54 | -17.83131 | -51.77179 | 2536 ft | 14 kts | 117° |
| 2026-05-08 21:54 | -17.83165 | -51.77099 | 2533 ft | 10 kts | 111° |
| 2026-05-08 21:55 | -17.83185 | -51.77039 | 2540 ft | 7 kts | 109° |
| 2026-05-08 21:55 | -17.83198 | -51.77000 | 2541 ft | 5 kts | 108° |
| 2026-05-08 21:55 | -17.83215 | -51.76942 | 2547 ft | 12 kts | 107° |
| 2026-05-08 21:56 | -17.83275 | -51.76734 | 2551 ft | 12 kts | 80° |
| 2026-05-08 21:56 | -17.83249 | -51.76691 | 2552 ft | 8 kts | 288° |
| 2026-05-08 21:56 | -17.83243 | -51.76714 | 2551 ft | 0 kts | 290° |
| 2026-05-08 21:57 | -17.83238 | -51.76730 | 2550 ft | 21 kts | 289° |
| 2026-05-08 21:57 | -17.83086 | -51.77170 | 2547 ft | 98 kts | 290° |
| 2026-05-08 21:57 | -17.82788 | -51.77895 | 2836 ft | 110 kts | 298° |
| 2026-05-08 21:57 | -17.82456 | -51.78678 | 3125 ft | 131 kts | 296° |
| 2026-05-08 21:58 | -17.82388 | -51.79722 | 3324 ft | 159 kts | 259° |
| 2026-05-08 21:58 | -17.83052 | -51.80733 | 3527 ft | 177 kts | 234° |
| 2026-05-08 21:58 | -17.83749 | -51.81823 | 3728 ft | 180 kts | 252° |
| 2026-05-08 21:58 | -17.84083 | -51.83086 | 3914 ft | 180 kts | 266° |
| 2026-05-08 21:59 | -17.84307 | -51.84382 | 4074 ft | 179 kts | 265° |
| 2026-05-08 21:59 | -17.84538 | -51.85662 | 4261 ft | 181 kts | 265° |
| 2026-05-08 21:59 | -17.84774 | -51.86936 | 4403 ft | 176 kts | 265° |
| 2026-05-08 21:59 | -17.85016 | -51.88221 | 4425 ft | 184 kts | 265° |
| 2026-05-08 22:00 | -17.85266 | -51.89541 | 4427 ft | 184 kts | 265° |
| 2026-05-08 22:00 | -17.85513 | -51.90859 | 4438 ft | 183 kts | 265° |
| 2026-05-08 22:00 | -17.85762 | -51.92183 | 4427 ft | 183 kts | 265° |
| 2026-05-08 22:00 | -17.86008 | -51.93471 | 4425 ft | 178 kts | 265° |
| 2026-05-08 22:01 | -17.86254 | -51.94769 | 4423 ft | 182 kts | 264° |
| 2026-05-08 22:01 | -17.86493 | -51.96061 | 4427 ft | 179 kts | 264° |
| 2026-05-08 22:01 | -17.86730 | -51.97323 | 4431 ft | 175 kts | 265° |
| 2026-05-08 22:01 | -17.86966 | -51.98593 | 4429 ft | 179 kts | 265° |
| 2026-05-08 22:02 | -17.87210 | -51.99887 | 4437 ft | 180 kts | 265° |
| 2026-05-08 22:02 | -17.87452 | -52.01190 | 4441 ft | 185 kts | 264° |
| 2026-05-08 22:02 | -17.87701 | -52.02503 | 4423 ft | 181 kts | 265° |
| 2026-05-08 22:02 | -17.87950 | -52.03791 | 4433 ft | 178 kts | 264° |
| 2026-05-08 22:03 | -17.88187 | -52.05103 | 4422 ft | 185 kts | 265° |
| 2026-05-08 22:03 | -17.88427 | -52.06414 | 4425 ft | 183 kts | 264° |
| 2026-05-08 22:03 | -17.88675 | -52.07706 | 4425 ft | 177 kts | 264° |
| 2026-05-08 22:03 | -17.88911 | -52.08964 | 4424 ft | 175 kts | 265° |
| 2026-05-08 22:04 | -17.89142 | -52.10231 | 4423 ft | 177 kts | 265° |
| 2026-05-08 22:04 | -17.89384 | -52.11505 | 4443 ft | 181 kts | 264° |
| 2026-05-08 22:04 | -17.89630 | -52.12795 | 4425 ft | 179 kts | 264° |
| 2026-05-08 22:04 | -17.89868 | -52.14064 | 4423 ft | 176 kts | 265° |
| 2026-05-08 22:05 | -17.90097 | -52.15306 | 4432 ft | 174 kts | 265° |
| 2026-05-08 22:05 | -17.90331 | -52.16574 | 4436 ft | 179 kts | 264° |
| 2026-05-08 22:05 | -17.90574 | -52.17873 | 4436 ft | 181 kts | 264° |
| 2026-05-08 22:05 | -17.90816 | -52.19170 | 4422 ft | 181 kts | 265° |
| 2026-05-08 22:06 | -17.91059 | -52.20466 | 4427 ft | 179 kts | 265° |
| 2026-05-08 22:06 | -17.91298 | -52.21759 | 4435 ft | 185 kts | 264° |
| 2026-05-08 22:06 | -17.91546 | -52.23068 | 4420 ft | 180 kts | 264° |
| 2026-05-08 22:06 | -17.91784 | -52.24383 | 4422 ft | 185 kts | 265° |
| 2026-05-08 22:07 | -17.92037 | -52.25717 | 4440 ft | 189 kts | 265° |
| 2026-05-08 22:07 | -17.92292 | -52.27076 | 4417 ft | 189 kts | 264° |
| 2026-05-08 22:07 | -17.92540 | -52.28427 | 4426 ft | 189 kts | 265° |
| 2026-05-08 22:07 | -17.92788 | -52.29773 | 4435 ft | 186 kts | 264° |
| 2026-05-08 22:08 | -17.93038 | -52.31090 | 4422 ft | 181 kts | 264° |
| 2026-05-08 22:08 | -17.93276 | -52.32402 | 4434 ft | 186 kts | 265° |
| 2026-05-08 22:08 | -17.93526 | -52.33735 | 4440 ft | 187 kts | 265° |
| 2026-05-08 22:08 | -17.93780 | -52.35091 | 4429 ft | 189 kts | 265° |
| 2026-05-08 22:09 | -17.94035 | -52.36442 | 4426 ft | 187 kts | 264° |
| 2026-05-08 22:09 | -17.94278 | -52.37776 | 4428 ft | 185 kts | 264° |
| 2026-05-08 22:09 | -17.94517 | -52.39090 | 4426 ft | 186 kts | 263° |
| 2026-05-08 22:09 | -17.94768 | -52.40407 | 4424 ft | 184 kts | 264° |
| 2026-05-08 22:10 | -17.95013 | -52.41738 | 4435 ft | 188 kts | 264° |
| 2026-05-08 22:10 | -17.95283 | -52.43080 | 4425 ft | 188 kts | 263° |
| 2026-05-08 22:10 | -17.95567 | -52.44417 | 4425 ft | 187 kts | 262° |
| 2026-05-08 22:10 | -17.95860 | -52.45827 | 4414 ft | 184 kts | 263° |
| 2026-05-08 22:11 | -17.96128 | -52.47137 | 4424 ft | 184 kts | 263° |
| 2026-05-08 22:11 | -17.96400 | -52.48457 | 4435 ft | 188 kts | 263° |
| 2026-05-08 22:11 | -17.96675 | -52.49787 | 4418 ft | 184 kts | 263° |
| 2026-05-08 22:11 | -17.96942 | -52.51086 | 4416 ft | 180 kts | 263° |
| 2026-05-08 22:12 | -17.97205 | -52.52361 | 4419 ft | 178 kts | 263° |
| 2026-05-08 22:12 | -17.97465 | -52.53641 | 4423 ft | 183 kts | 263° |
| 2026-05-08 22:12 | -17.97738 | -52.54954 | 4417 ft | 182 kts | 263° |
| 2026-05-08 22:12 | -17.98001 | -52.56221 | 4408 ft | 177 kts | 263° |
| 2026-05-08 22:13 | -17.98257 | -52.57477 | 4425 ft | 174 kts | 263° |
| 2026-05-08 22:13 | -17.98513 | -52.58731 | 4437 ft | 177 kts | 263° |
| 2026-05-08 22:13 | -17.98780 | -52.60001 | 4421 ft | 176 kts | 263° |
| 2026-05-08 22:13 | -17.99035 | -52.61254 | 4426 ft | 175 kts | 265° |
| 2026-05-08 22:14 | -17.99292 | -52.62514 | 4445 ft | 180 kts | 263° |
| 2026-05-08 22:14 | -17.99567 | -52.63835 | 4438 ft | 188 kts | 262° |
| 2026-05-08 22:14 | -17.99837 | -52.65161 | 4431 ft | 183 kts | 263° |
| 2026-05-08 22:14 | -18.00106 | -52.66486 | 4422 ft | 187 kts | 263° |
| 2026-05-08 22:15 | -18.00380 | -52.67812 | 4422 ft | 184 kts | 263° |
| 2026-05-08 22:15 | -18.00657 | -52.69125 | 4423 ft | 183 kts | 263° |
| 2026-05-08 22:15 | -18.00921 | -52.70437 | 4438 ft | 188 kts | 263° |
| 2026-05-08 22:15 | -18.01103 | -52.71342 | 4429 ft | 186 kts | 263° |
| 2026-05-08 22:16 | -18.01366 | -52.72643 | 4423 ft | 182 kts | 263° |
| 2026-05-08 22:16 | -18.01646 | -52.73941 | 4444 ft | 184 kts | 262° |
| 2026-05-08 22:16 | -18.01912 | -52.75277 | 4424 ft | 185 kts | 263° |
| 2026-05-08 22:16 | -18.02177 | -52.76582 | 4431 ft | 182 kts | 263° |
| 2026-05-08 22:17 | -18.02440 | -52.77867 | 4446 ft | 180 kts | 263° |
| 2026-05-08 22:17 | -18.02711 | -52.79196 | 4440 ft | 190 kts | 263° |
| 2026-05-08 22:17 | -18.02995 | -52.80571 | 4449 ft | 195 kts | 263° |
| 2026-05-08 22:17 | -18.03274 | -52.81934 | 4425 ft | 187 kts | 263° |
| 2026-05-08 22:18 | -18.03542 | -52.83252 | 4425 ft | 183 kts | 263° |
| 2026-05-08 22:18 | -18.03807 | -52.84551 | 4429 ft | 180 kts | 262° |
| 2026-05-08 22:18 | -18.04070 | -52.85839 | 4435 ft | 182 kts | 263° |
| 2026-05-08 22:18 | -18.04337 | -52.87151 | 4429 ft | 182 kts | 263° |
| 2026-05-08 22:19 | -18.04601 | -52.88437 | 4428 ft | 178 kts | 263° |
| 2026-05-08 22:19 | -18.04859 | -52.89707 | 4429 ft | 177 kts | 263° |
| 2026-05-08 22:19 | -18.05117 | -52.90971 | 4427 ft | 177 kts | 263° |
| 2026-05-08 22:19 | -18.05374 | -52.92234 | 4428 ft | 176 kts | 263° |
| 2026-05-08 22:20 | -18.05630 | -52.93492 | 4428 ft | 176 kts | 263° |
| 2026-05-08 22:20 | -18.05886 | -52.94749 | 4427 ft | 176 kts | 263° |
| 2026-05-08 22:20 | -18.06143 | -52.96007 | 4431 ft | 176 kts | 263° |
| 2026-05-08 22:20 | -18.06398 | -52.97259 | 4429 ft | 175 kts | 263° |
| 2026-05-08 22:21 | -18.06652 | -52.98511 | 4429 ft | 175 kts | 263° |
| 2026-05-08 22:21 | -18.06907 | -52.99766 | 4429 ft | 176 kts | 263° |
| 2026-05-08 22:21 | -18.07163 | -53.01021 | 4429 ft | 176 kts | 263° |
| 2026-05-08 22:21 | -18.07418 | -53.02274 | 4429 ft | 175 kts | 263° |
| 2026-05-08 22:22 | -18.07671 | -53.03522 | 4428 ft | 175 kts | 263° |
| 2026-05-08 22:22 | -18.07926 | -53.04782 | 4430 ft | 177 kts | 263° |
| 2026-05-08 22:22 | -18.08183 | -53.06044 | 4428 ft | 176 kts | 263° |
| 2026-05-08 22:22 | -18.08437 | -53.07298 | 4427 ft | 175 kts | 263° |
| 2026-05-08 22:23 | -18.08692 | -53.08549 | 4425 ft | 175 kts | 263° |
| 2026-05-08 22:23 | -18.08946 | -53.09803 | 4430 ft | 176 kts | 263° |
| 2026-05-08 22:23 | -18.09202 | -53.11067 | 4430 ft | 177 kts | 263° |
| 2026-05-08 22:23 | -18.09461 | -53.12344 | 4429 ft | 179 kts | 263° |
| 2026-05-08 22:24 | -18.09720 | -53.13625 | 4442 ft | 182 kts | 263° |
| 2026-05-08 22:24 | -18.09991 | -53.14940 | 4426 ft | 184 kts | 260° |
| 2026-05-08 22:24 | -18.10441 | -53.16208 | 4449 ft | 187 kts | 251° |
| 2026-05-08 22:24 | -18.10973 | -53.17448 | 4426 ft | 184 kts | 251° |
| 2026-05-08 22:25 | -18.11477 | -53.18675 | 4425 ft | 182 kts | 252° |
| 2026-05-08 22:25 | -18.11961 | -53.19884 | 4426 ft | 182 kts | 253° |
| 2026-05-08 22:25 | -18.12451 | -53.21105 | 4421 ft | 181 kts | 252° |
| 2026-05-08 22:25 | -18.12939 | -53.22322 | 4420 ft | 180 kts | 252° |
| 2026-05-08 22:26 | -18.13424 | -53.23531 | 4420 ft | 179 kts | 252° |
| 2026-05-08 22:26 | -18.13908 | -53.24740 | 4415 ft | 179 kts | 252° |
| 2026-05-08 22:26 | -18.14391 | -53.25943 | 4413 ft | 178 kts | 252° |
| 2026-05-08 22:26 | -18.14886 | -53.27183 | 4439 ft | 190 kts | 252° |
| 2026-05-08 22:27 | -18.15407 | -53.28474 | 4415 ft | 189 kts | 252° |
| 2026-05-08 22:27 | -18.15920 | -53.29747 | 4399 ft | 191 kts | 251° |
| 2026-05-08 22:27 | -18.16425 | -53.31014 | 4414 ft | 186 kts | 252° |
| 2026-05-08 22:27 | -18.16919 | -53.32263 | 4410 ft | 184 kts | 252° |
| 2026-05-08 22:28 | -18.17419 | -53.33504 | 4410 ft | 183 kts | 252° |
| 2026-05-08 22:28 | -18.17910 | -53.34728 | 4411 ft | 180 kts | 252° |
| 2026-05-08 22:28 | -18.18395 | -53.35935 | 4410 ft | 177 kts | 252° |
| 2026-05-08 22:28 | -18.18874 | -53.37134 | 4409 ft | 178 kts | 252° |
| 2026-05-08 22:29 | -18.19356 | -53.38338 | 4403 ft | 178 kts | 252° |
| 2026-05-08 22:29 | -18.19835 | -53.39536 | 4402 ft | 178 kts | 252° |
| 2026-05-08 22:29 | -18.20308 | -53.40719 | 4407 ft | 178 kts | 252° |
| 2026-05-08 22:29 | -18.20788 | -53.41920 | 4405 ft | 179 kts | 252° |
| 2026-05-08 22:30 | -18.21269 | -53.43122 | 4404 ft | 178 kts | 252° |
| 2026-05-08 22:30 | -18.21748 | -53.44320 | 4406 ft | 178 kts | 252° |
| 2026-05-08 22:30 | -18.22229 | -53.45524 | 4402 ft | 178 kts | 252° |
| 2026-05-08 22:30 | -18.22710 | -53.46727 | 4414 ft | 179 kts | 253° |
| 2026-05-08 22:31 | -18.23203 | -53.47966 | 4403 ft | 185 kts | 252° |
| 2026-05-08 22:31 | -18.23707 | -53.49217 | 4401 ft | 187 kts | 252° |
| 2026-05-08 22:31 | -18.24215 | -53.50495 | 4408 ft | 189 kts | 253° |
| 2026-05-08 22:31 | -18.24723 | -53.51774 | 4400 ft | 188 kts | 252° |
| 2026-05-08 22:32 | -18.25226 | -53.53024 | 4396 ft | 183 kts | 252° |
| 2026-05-08 22:32 | -18.25714 | -53.54254 | 4397 ft | 187 kts | 252° |
| 2026-05-08 22:32 | -18.26214 | -53.55505 | 4401 ft | 185 kts | 253° |
| 2026-05-08 22:32 | -18.26710 | -53.56753 | 4394 ft | 183 kts | 253° |
| 2026-05-08 22:33 | -18.27209 | -53.57993 | 4385 ft | 184 kts | 252° |
| 2026-05-08 22:33 | -18.27698 | -53.59230 | 4385 ft | 183 kts | 253° |
| 2026-05-08 22:33 | -18.28190 | -53.60457 | 4385 ft | 182 kts | 252° |
| 2026-05-08 22:33 | -18.28680 | -53.61688 | 4385 ft | 183 kts | 252° |
| 2026-05-08 22:34 | -18.29171 | -53.62920 | 4387 ft | 184 kts | 252° |
| 2026-05-08 22:34 | -18.29669 | -53.64173 | 4384 ft | 185 kts | 252° |
| 2026-05-08 22:34 | -18.30106 | -53.65429 | 4383 ft | 180 kts | 261° |
| 2026-05-08 22:34 | -18.30326 | -53.66711 | 4385 ft | 177 kts | 267° |
| 2026-05-08 22:35 | -18.30517 | -53.68001 | 4386 ft | 179 kts | 265° |
| 2026-05-08 22:35 | -18.30740 | -53.69297 | 4387 ft | 181 kts | 265° |
| 2026-05-08 22:35 | -18.30969 | -53.70607 | 4384 ft | 180 kts | 265° |
| 2026-05-08 22:35 | -18.31194 | -53.71901 | 4384 ft | 180 kts | 265° |
| 2026-05-08 22:36 | -18.31416 | -53.73197 | 4381 ft | 179 kts | 265° |
| 2026-05-08 22:36 | -18.31638 | -53.74482 | 4384 ft | 178 kts | 265° |
| 2026-05-08 22:36 | -18.31861 | -53.75775 | 4378 ft | 179 kts | 265° |
| 2026-05-08 22:36 | -18.32082 | -53.77064 | 4377 ft | 179 kts | 265° |
| 2026-05-08 22:37 | -18.32302 | -53.78333 | 4387 ft | 181 kts | 265° |
| 2026-05-08 22:37 | -18.32531 | -53.79640 | 4382 ft | 181 kts | 265° |
| 2026-05-08 22:37 | -18.32754 | -53.80947 | 4388 ft | 182 kts | 265° |
| 2026-05-08 22:37 | -18.32981 | -53.82271 | 4387 ft | 184 kts | 265° |
| 2026-05-08 22:38 | -18.33210 | -53.83593 | 4384 ft | 183 kts | 264° |
| 2026-05-08 22:38 | -18.33436 | -53.84907 | 4390 ft | 183 kts | 265° |
| 2026-05-08 22:38 | -18.33661 | -53.86223 | 4388 ft | 182 kts | 265° |
| 2026-05-08 22:38 | -18.33888 | -53.87537 | 4387 ft | 183 kts | 265° |
| 2026-05-08 22:39 | -18.34114 | -53.88855 | 4384 ft | 183 kts | 265° |
| 2026-05-08 22:39 | -18.34339 | -53.90169 | 4385 ft | 182 kts | 265° |
| 2026-05-08 22:39 | -18.34565 | -53.91476 | 4381 ft | 180 kts | 265° |
| 2026-05-08 22:39 | -18.34788 | -53.92773 | 4387 ft | 181 kts | 265° |
| 2026-05-08 22:40 | -18.35011 | -53.94081 | 4381 ft | 182 kts | 265° |
| 2026-05-08 22:40 | -18.35232 | -53.95376 | 4376 ft | 178 kts | 265° |
| 2026-05-08 22:40 | -18.35452 | -53.96654 | 4383 ft | 178 kts | 265° |
| 2026-05-08 22:40 | -18.35674 | -53.97944 | 4375 ft | 178 kts | 265° |
| 2026-05-08 22:41 | -18.35894 | -53.99229 | 4379 ft | 179 kts | 265° |
| 2026-05-08 22:41 | -18.36114 | -54.00523 | 4383 ft | 180 kts | 265° |
| 2026-05-08 22:41 | -18.36337 | -54.01823 | 4416 ft | 178 kts | 265° |
| 2026-05-08 22:41 | -18.36554 | -54.03082 | 4456 ft | 177 kts | 265° |
| 2026-05-08 22:42 | -18.36771 | -54.04365 | 4460 ft | 179 kts | 265° |
| 2026-05-08 22:42 | -18.36997 | -54.05684 | 4460 ft | 182 kts | 265° |
| 2026-05-08 22:42 | -18.37218 | -54.06975 | 4462 ft | 180 kts | 265° |
| 2026-05-08 22:42 | -18.37440 | -54.08280 | 4460 ft | 181 kts | 265° |
| 2026-05-08 22:43 | -18.37664 | -54.09579 | 4463 ft | 180 kts | 265° |
| 2026-05-08 22:43 | -18.37885 | -54.10885 | 4456 ft | 181 kts | 265° |
| 2026-05-08 22:43 | -18.38108 | -54.12189 | 4462 ft | 182 kts | 265° |
| 2026-05-08 22:43 | -18.38334 | -54.13506 | 4461 ft | 183 kts | 265° |
| 2026-05-08 22:44 | -18.38558 | -54.14818 | 4472 ft | 182 kts | 265° |
| 2026-05-08 22:44 | -18.38782 | -54.16138 | 4467 ft | 184 kts | 265° |
| 2026-05-08 22:44 | -18.39009 | -54.17468 | 4465 ft | 185 kts | 265° |
| 2026-05-08 22:44 | -18.39233 | -54.18803 | 4461 ft | 185 kts | 265° |
| 2026-05-08 22:45 | -18.39459 | -54.20131 | 4467 ft | 185 kts | 265° |
| 2026-05-08 22:45 | -18.39690 | -54.21468 | 4457 ft | 184 kts | 264° |
| 2026-05-08 22:45 | -18.39911 | -54.22789 | 4459 ft | 184 kts | 265° |
| 2026-05-08 22:45 | -18.40133 | -54.24101 | 4453 ft | 181 kts | 265° |
| 2026-05-08 22:46 | -18.40358 | -54.25402 | 4451 ft | 180 kts | 265° |
| 2026-05-08 22:46 | -18.40580 | -54.26703 | 4455 ft | 180 kts | 265° |
| 2026-05-08 22:46 | -18.40799 | -54.28001 | 4458 ft | 180 kts | 265° |
| 2026-05-08 22:46 | -18.41017 | -54.29304 | 4458 ft | 181 kts | 266° |
| 2026-05-08 22:47 | -18.41240 | -54.30612 | 4460 ft | 181 kts | 265° |
| 2026-05-08 22:47 | -18.41464 | -54.31915 | 4452 ft | 181 kts | 265° |
| 2026-05-08 22:47 | -18.41683 | -54.33215 | 4459 ft | 180 kts | 266° |
| 2026-05-08 22:47 | -18.41894 | -54.34500 | 4459 ft | 180 kts | 265° |
| 2026-05-08 22:48 | -18.42119 | -54.35795 | 4458 ft | 180 kts | 265° |
| 2026-05-08 22:48 | -18.42339 | -54.37096 | 4458 ft | 182 kts | 266° |
| 2026-05-08 22:48 | -18.42561 | -54.38413 | 4460 ft | 184 kts | 265° |
| 2026-05-08 22:48 | -18.42785 | -54.39738 | 4465 ft | 185 kts | 265° |
| 2026-05-08 22:49 | -18.43012 | -54.41076 | 4459 ft | 184 kts | 266° |
| 2026-05-08 22:49 | -18.43460 | -54.43731 | 4457 ft | 184 kts | 266° |
| 2026-05-08 22:49 | -18.43679 | -54.45042 | 4461 ft | 182 kts | 266° |
| 2026-05-08 22:50 | -18.43906 | -54.46360 | 4461 ft | 183 kts | 266° |
| 2026-05-08 22:50 | -18.44127 | -54.47691 | 4466 ft | 186 kts | 266° |
| 2026-05-08 22:50 | -18.44353 | -54.49037 | 4463 ft | 186 kts | 266° |
| 2026-05-08 22:50 | -18.44579 | -54.50377 | 4461 ft | 185 kts | 266° |
| 2026-05-08 22:51 | -18.44805 | -54.51708 | 4461 ft | 184 kts | 266° |
| 2026-05-08 22:51 | -18.45027 | -54.53039 | 4461 ft | 184 kts | 266° |
| 2026-05-08 22:51 | -18.45251 | -54.54374 | 4468 ft | 187 kts | 266° |
| 2026-05-08 22:51 | -18.45481 | -54.55737 | 4225 ft | 187 kts | 266° |
| 2026-05-08 22:52 | -18.45705 | -54.57053 | 3962 ft | 179 kts | 265° |
| 2026-05-08 22:52 | -18.45851 | -54.57922 | 3780 ft | 177 kts | 266° |
| 2026-05-08 22:52 | -18.46061 | -54.59191 | 3516 ft | 174 kts | 266° |
| 2026-05-08 22:52 | -18.46345 | -54.60848 | 3158 ft | 172 kts | 265° |
| 2026-05-08 22:53 | -18.46549 | -54.62084 | 2897 ft | 171 kts | 265° |
| 2026-05-08 22:53 | -18.46753 | -54.63309 | 2630 ft | 167 kts | 266° |
| 2026-05-08 22:53 | -18.46954 | -54.64525 | 2384 ft | 171 kts | 265° |
| 2026-05-08 22:53 | -18.47093 | -54.65361 | 2196 ft | 170 kts | 264° |
| 2026-05-08 22:54 | -18.47299 | -54.66570 | 1888 ft | 172 kts | 264° |
| 2026-05-08 22:54 | -18.47499 | -54.67765 | 1852 ft | 159 kts | 262° |
| 2026-05-08 22:54 | -18.47686 | -54.68866 | 1840 ft | 147 kts | 263° |
| 2026-05-08 22:54 | -18.47857 | -54.69894 | 1843 ft | 137 kts | 263° |
| 2026-05-08 22:55 | -18.48020 | -54.70855 | 1847 ft | 128 kts | 263° |
| 2026-05-08 22:55 | -18.48174 | -54.71775 | 1842 ft | 127 kts | 259° |
| 2026-05-08 22:55 | -18.48706 | -54.72440 | 1844 ft | 132 kts | 203° |
| 2026-05-08 22:55 | -18.49616 | -54.72655 | 1849 ft | 128 kts | 194° |
| 2026-05-08 22:56 | -18.50465 | -54.72846 | 1839 ft | 123 kts | 194° |
| 2026-05-08 22:56 | -18.51304 | -54.73025 | 1845 ft | 121 kts | 194° |
| 2026-05-08 22:56 | -18.52079 | -54.72819 | 1888 ft | 121 kts | 127° |
| 2026-05-08 22:56 | -18.52041 | -54.72059 | 1822 ft | 107 kts | 38° |
| 2026-05-08 22:57 | -18.51338 | -54.71912 | 1656 ft | 111 kts | 350° |
| 2026-05-08 22:57 | -18.50536 | -54.71916 | 1439 ft | 117 kts | 8° |
| 2026-05-08 22:57 | -18.49742 | -54.71772 | 1293 ft | 115 kts | 7° |
| 2026-05-08 22:57 | -18.49030 | -54.71665 | 1118 ft | 96 kts | 8° |
| 2026-05-08 22:58 | -18.48385 | -54.71560 | 991 ft | 91 kts | 7° |
| 2026-05-08 22:58 | -18.47867 | -54.71477 | 966 ft | 62 kts | 8° |
| 2026-05-08 22:58 | -18.47567 | -54.71426 | 964 ft | 26 kts | 10° |
| 2026-05-08 22:58 | -18.47426 | -54.71406 | 961 ft | 10 kts | 355° |
| 2026-05-08 22:59 | -18.47371 | -54.71484 | 959 ft | 18 kts | 289° |
| 2026-05-08 22:59 | -18.47339 | -54.71607 | 963 ft | 12 kts | 265° |
| 2026-05-08 22:59 | -18.47365 | -54.71646 | 962 ft | 6 kts | 89° |
| 2026-05-08 22:59 | -18.47362 | -54.71639 | 961 ft | 0 kts | 49° |